Veni Vi — LD9966 — position and weather

sailwx.info

Track history (hours):
 
Tides and Currents Weather Stations Pressure Air Temp Water Temp Dewpoint Dewpoint Depression Visibility Wind Speed Wind Dir Waves Ship Positions

Veni Vi

Last reported at 2017-Apr-03 16:29 UTC. Time now 2017-Apr-29 09:27 UTC.
Position N 60°16' E 005°14'.
Warning: this ship's position is 25 days out of date.

Length 13 m.

Type: Sailing vessel. MMSI: 257827490.

Date/timePositionNaut miles runAvg speedWind from/ knotsBaromVisibWave heightAir tempDewpointWater temp
2017-Apr-03 16:29N 60°16' E 005°14'3 3.5
2017-Apr-03 15:39N 60°14' E 005°10'1 7.4
2017-Apr-03 15:30N 60°13' E 005°11'1 2.8
2017-Apr-03 15:00N 60°13' E 005°14'3 1.3
2017-Apr-03 12:39N 60°16' E 005°13'1 6.6
2017-Apr-03 12:30N 60°17' E 005°12'0 0.1
2017-Apr-03 08:04N 60°17' E 005°12'1 7.5
2017-Apr-03 07:58N 60°16' E 005°12'1 0.1
2017-Apr-02 16:59N 60°16' E 005°14'3 6.3
2017-Apr-02 16:30N 60°13' E 005°11'  
2017-Mar-27 13:28N 60°15' E 005°12'2 2.7
2017-Mar-27 12:32N 60°13' E 005°11'  
Track history (hours):
 
Tides and Currents Weather Stations Pressure Air Temp Water Temp Dewpoint Dewpoint Depression Visibility Wind Speed Wind Dir Waves Ship Positions

Veni Vi

Last reported at 2017-Apr-03 16:29 UTC. Time now 2017-Apr-29 09:27 UTC.
Position N 60°16' E 005°14'.
Warning: this ship's position is 25 days out of date.

Length 13 m.

Type: Sailing vessel. MMSI: 257827490.

Date/timePositionNaut miles runAvg speedWind from/ knotsBaromVisibWave heightAir tempDewpointWater temp
2017-Apr-03 16:29N 60°16' E 005°14'3 3.5
2017-Apr-03 15:39N 60°14' E 005°10'1 7.4
2017-Apr-03 15:30N 60°13' E 005°11'1 2.8
2017-Apr-03 15:00N 60°13' E 005°14'3 1.3
2017-Apr-03 12:39N 60°16' E 005°13'1 6.6
2017-Apr-03 12:30N 60°17' E 005°12'0 0.1
2017-Apr-03 08:04N 60°17' E 005°12'1 7.5
2017-Apr-03 07:58N 60°16' E 005°12'1 0.1
2017-Apr-02 16:59N 60°16' E 005°14'3 6.3
2017-Apr-02 16:30N 60°13' E 005°11'  
2017-Mar-27 13:28N 60°15' E 005°12'2 2.7
2017-Mar-27 12:32N 60°13' E 005°11'  

Dump ship's entire track history